sensor_id;sensor_type;location;lat;lon;timestamp;pressure;altitude;pressure_sealevel;temperature;humidity
55755;BME280;41674;52.290;-1.474;2023-04-28T00:00:08;100171.59;;;10.18;93.73
55755;BME280;41674;52.290;-1.474;2023-04-28T00:02:36;100172.08;;;9.80;94.84
55755;BME280;41674;52.290;-1.474;2023-04-28T00:05:06;100171.58;;;10.27;91.70
55755;BME280;41674;52.290;-1.474;2023-04-28T00:07:36;100169.70;;;9.30;93.97
55755;BME280;41674;52.290;-1.474;2023-04-28T00:10:07;100164.55;;;9.08;96.87
55755;BME280;41674;52.290;-1.474;2023-04-28T00:12:35;100164.20;;;9.85;94.54
55755;BME280;41674;52.290;-1.474;2023-04-28T00:15:05;100163.43;;;9.45;95.55
55755;BME280;41674;52.290;-1.474;2023-04-28T00:17:33;100159.48;;;9.99;94.03
55755;BME280;41674;52.290;-1.474;2023-04-28T00:20:04;100156.38;;;10.93;90.26
55755;BME280;41674;52.290;-1.474;2023-04-28T00:22:32;100153.05;;;10.88;88.38
55755;BME280;41674;52.290;-1.474;2023-04-28T00:25:02;100148.22;;;11.31;86.58
55755;BME280;41674;52.290;-1.474;2023-04-28T00:27:32;100148.75;;;10.87;87.60
55755;BME280;41674;52.290;-1.474;2023-04-28T00:30:02;100143.14;;;10.59;87.91
55755;BME280;41674;52.290;-1.474;2023-04-28T00:32:31;100141.00;;;10.68;90.64
55755;BME280;41674;52.290;-1.474;2023-04-28T00:35:00;100137.33;;;11.35;86.39
55755;BME280;41674;52.290;-1.474;2023-04-28T00:37:30;100131.16;;;11.67;84.92
55755;BME280;41674;52.290;-1.474;2023-04-28T00:39:59;100134.01;;;11.44;85.87
55755;BME280;41674;52.290;-1.474;2023-04-28T00:42:28;100131.89;;;11.90;84.19
55755;BME280;41674;52.290;-1.474;2023-04-28T00:44:58;100129.25;;;11.77;83.93
55755;BME280;41674;52.290;-1.474;2023-04-28T00:47:28;100131.65;;;11.47;85.05
55755;BME280;41674;52.290;-1.474;2023-04-28T00:49:57;100131.33;;;11.98;84.02
55755;BME280;41674;52.290;-1.474;2023-04-28T00:52:27;100129.26;;;11.87;84.40
55755;BME280;41674;52.290;-1.474;2023-04-28T00:54:57;100125.96;;;11.88;83.39
55755;BME280;41674;52.290;-1.474;2023-04-28T00:57:26;100126.26;;;12.21;83.32
55755;BME280;41674;52.290;-1.474;2023-04-28T00:59:55;100132.55;;;11.37;85.47
55755;BME280;41674;52.290;-1.474;2023-04-28T01:02:25;100131.60;;;11.18;85.08
55755;BME280;41674;52.290;-1.474;2023-04-28T01:04:55;100128.67;;;12.09;83.70
55755;BME280;41674;52.290;-1.474;2023-04-28T01:07:24;100125.52;;;12.05;82.85
55755;BME280;41674;52.290;-1.474;2023-04-28T01:09:53;100123.04;;;12.30;82.71
55755;BME280;41674;52.290;-1.474;2023-04-28T01:12:22;100120.61;;;12.16;82.46
55755;BME280;41674;52.290;-1.474;2023-04-28T01:14:52;100118.69;;;12.29;81.87
55755;BME280;41674;52.290;-1.474;2023-04-28T01:17:22;100121.67;;;10.86;85.56
55755;BME280;41674;52.290;-1.474;2023-04-28T01:19:51;100121.50;;;11.03;87.01
55755;BME280;41674;52.290;-1.474;2023-04-28T01:22:21;100113.50;;;11.85;83.24
55755;BME280;41674;52.290;-1.474;2023-04-28T01:24:50;100114.02;;;12.27;82.63
55755;BME280;41674;52.290;-1.474;2023-04-28T01:27:19;100114.71;;;12.08;82.63
55755;BME280;41674;52.290;-1.474;2023-04-28T01:29:49;100112.22;;;11.85;82.79
55755;BME280;41674;52.290;-1.474;2023-04-28T01:32:18;100108.44;;;12.02;83.43
55755;BME280;41674;52.290;-1.474;2023-04-28T01:34:47;100106.94;;;11.91;84.21
55755;BME280;41674;52.290;-1.474;2023-04-28T01:37:17;100104.30;;;11.99;83.58
55755;BME280;41674;52.290;-1.474;2023-04-28T01:39:46;100111.24;;;11.33;84.48
55755;BME280;41674;52.290;-1.474;2023-04-28T01:42:16;100103.65;;;12.36;82.79
55755;BME280;41674;52.290;-1.474;2023-04-28T01:44:46;100105.62;;;11.49;85.43
55755;BME280;41674;52.290;-1.474;2023-04-28T01:47:15;100101.61;;;11.92;83.03
55755;BME280;41674;52.290;-1.474;2023-04-28T01:49:45;100099.83;;;12.28;82.64
55755;BME280;41674;52.290;-1.474;2023-04-28T01:52:15;100100.95;;;12.10;82.72
55755;BME280;41674;52.290;-1.474;2023-04-28T01:54:44;100099.15;;;12.16;84.19
55755;BME280;41674;52.290;-1.474;2023-04-28T01:57:13;100096.82;;;11.99;83.49
55755;BME280;41674;52.290;-1.474;2023-04-28T01:59:43;100097.66;;;12.39;82.91
55755;BME280;41674;52.290;-1.474;2023-04-28T02:02:12;100098.12;;;12.45;82.61
55755;BME280;41674;52.290;-1.474;2023-04-28T02:04:42;100105.18;;;10.70;88.86
55755;BME280;41674;52.290;-1.474;2023-04-28T02:07:12;100102.07;;;11.83;84.57
55755;BME280;41674;52.290;-1.474;2023-04-28T02:09:41;100103.42;;;11.83;84.12
55755;BME280;41674;52.290;-1.474;2023-04-28T02:12:10;100102.39;;;12.26;83.77
55755;BME280;41674;52.290;-1.474;2023-04-28T02:14:39;100103.54;;;12.45;83.08
55755;BME280;41674;52.290;-1.474;2023-04-28T02:17:09;100106.37;;;11.39;86.13
55755;BME280;41674;52.290;-1.474;2023-04-28T02:19:39;100102.65;;;12.12;83.21
55755;BME280;41674;52.290;-1.474;2023-04-28T02:22:08;100104.57;;;11.35;85.63
55755;BME280;41674;52.290;-1.474;2023-04-28T02:24:37;100097.98;;;11.71;85.77
55755;BME280;41674;52.290;-1.474;2023-04-28T02:27:07;100099.89;;;12.20;83.66
55755;BME280;41674;52.290;-1.474;2023-04-28T02:29:36;100104.61;;;11.14;85.93
55755;BME280;41674;52.290;-1.474;2023-04-28T02:32:06;100103.81;;;9.79;92.80
55755;BME280;41674;52.290;-1.474;2023-04-28T02:34:35;100101.23;;;11.83;86.18
55755;BME280;41674;52.290;-1.474;2023-04-28T02:37:05;100098.37;;;11.98;84.28
55755;BME280;41674;52.290;-1.474;2023-04-28T02:39:34;100094.53;;;11.67;85.63
55755;BME280;41674;52.290;-1.474;2023-04-28T02:42:04;100093.83;;;10.63;90.79
55755;BME280;41674;52.290;-1.474;2023-04-28T02:44:33;100085.13;;;11.86;85.05
55755;BME280;41674;52.290;-1.474;2023-04-28T02:47:02;100087.54;;;11.85;84.05
55755;BME280;41674;52.290;-1.474;2023-04-28T02:49:32;100091.78;;;12.01;84.22
55755;BME280;41674;52.290;-1.474;2023-04-28T02:52:02;100087.14;;;11.73;85.25
55755;BME280;41674;52.290;-1.474;2023-04-28T02:54:31;100087.92;;;12.03;84.28
55755;BME280;41674;52.290;-1.474;2023-04-28T02:57:00;100088.76;;;12.43;83.89
55755;BME280;41674;52.290;-1.474;2023-04-28T02:59:30;100087.41;;;12.27;83.68
55755;BME280;41674;52.290;-1.474;2023-04-28T03:01:59;100083.16;;;12.35;83.55
55755;BME280;41674;52.290;-1.474;2023-04-28T03:04:28;100079.76;;;12.18;83.39
55755;BME280;41674;52.290;-1.474;2023-04-28T03:06:57;100088.03;;;12.05;83.67
55755;BME280;41674;52.290;-1.474;2023-04-28T03:09:26;100087.43;;;12.51;83.32
55755;BME280;41674;52.290;-1.474;2023-04-28T03:11:57;100090.61;;;12.39;83.04
55755;BME280;41674;52.290;-1.474;2023-04-28T03:14:25;100091.14;;;11.98;82.99
55755;BME280;41674;52.290;-1.474;2023-04-28T03:16:55;100092.92;;;12.24;81.89
55755;BME280;41674;52.290;-1.474;2023-04-28T03:19:24;100095.24;;;12.44;81.45
55755;BME280;41674;52.290;-1.474;2023-04-28T03:21:54;100095.72;;;12.77;80.47
55755;BME280;41674;52.290;-1.474;2023-04-28T03:24:23;100095.87;;;12.59;80.89
55755;BME280;41674;52.290;-1.474;2023-04-28T03:26:52;100096.79;;;12.80;79.46
55755;BME280;41674;52.290;-1.474;2023-04-28T03:29:22;100092.34;;;13.37;78.23
55755;BME280;41674;52.290;-1.474;2023-04-28T03:31:51;100096.39;;;13.39;77.93
55755;BME280;41674;52.290;-1.474;2023-04-28T03:34:21;100099.47;;;13.09;77.37
55755;BME280;41674;52.290;-1.474;2023-04-28T03:36:50;100101.65;;;12.95;77.33
55755;BME280;41674;52.290;-1.474;2023-04-28T03:39:20;100101.63;;;13.48;76.36
55755;BME280;41674;52.290;-1.474;2023-04-28T03:41:49;100107.83;;;12.54;78.87
55755;BME280;41674;52.290;-1.474;2023-04-28T03:44:19;100106.88;;;13.00;78.01
55755;BME280;41674;52.290;-1.474;2023-04-28T03:46:48;100105.76;;;13.50;77.05
55755;BME280;41674;52.290;-1.474;2023-04-28T03:49:17;100108.66;;;13.29;76.89
55755;BME280;41674;52.290;-1.474;2023-04-28T03:51:46;100110.99;;;12.96;78.60
55755;BME280;41674;52.290;-1.474;2023-04-28T03:54:15;100107.67;;;12.56;78.60
55755;BME280;41674;52.290;-1.474;2023-04-28T03:56:45;100103.05;;;13.10;77.79
55755;BME280;41674;52.290;-1.474;2023-04-28T03:59:14;100102.56;;;13.04;77.27
55755;BME280;41674;52.290;-1.474;2023-04-28T04:01:43;100099.89;;;13.42;76.93
55755;BME280;41674;52.290;-1.474;2023-04-28T04:04:13;100100.53;;;13.59;77.04
55755;BME280;41674;52.290;-1.474;2023-04-28T04:06:42;100099.97;;;13.31;77.96
55755;BME280;41674;52.290;-1.474;2023-04-28T04:09:13;100102.78;;;13.02;78.88
55755;BME280;41674;52.290;-1.474;2023-04-28T04:11:41;100104.14;;;13.21;80.01
55755;BME280;41674;52.290;-1.474;2023-04-28T04:14:10;100107.52;;;12.95;79.77
55755;BME280;41674;52.290;-1.474;2023-04-28T04:16:39;100109.38;;;12.88;79.68
55755;BME280;41674;52.290;-1.474;2023-04-28T04:19:19;100107.14;;;13.11;79.49
55755;BME280;41674;52.290;-1.474;2023-04-28T04:21:38;100106.76;;;13.13;79.69
55755;BME280;41674;52.290;-1.474;2023-04-28T04:24:09;100109.46;;;13.40;79.42
55755;BME280;41674;52.290;-1.474;2023-04-28T04:26:37;100110.75;;;12.81;79.89
55755;BME280;41674;52.290;-1.474;2023-04-28T04:29:06;100111.20;;;13.28;79.98
55755;BME280;41674;52.290;-1.474;2023-04-28T04:31:37;100110.73;;;12.72;80.16
55755;BME280;41674;52.290;-1.474;2023-04-28T04:34:06;100114.61;;;12.99;80.31
55755;BME280;41674;52.290;-1.474;2023-04-28T04:36:36;100113.61;;;12.99;80.45
55755;BME280;41674;52.290;-1.474;2023-04-28T04:39:05;100116.48;;;12.99;80.70
55755;BME280;41674;52.290;-1.474;2023-04-28T04:41:36;100115.52;;;13.05;80.81
55755;BME280;41674;52.290;-1.474;2023-04-28T04:44:04;100117.76;;;13.26;81.10
55755;BME280;41674;52.290;-1.474;2023-04-28T04:46:33;100113.40;;;13.22;81.43
55755;BME280;41674;52.290;-1.474;2023-04-28T04:49:02;100114.31;;;13.19;81.78
55755;BME280;41674;52.290;-1.474;2023-04-28T04:51:37;100115.23;;;12.85;82.55
55755;BME280;41674;52.290;-1.474;2023-04-28T04:54:02;100118.92;;;12.56;84.09
55755;BME280;41674;52.290;-1.474;2023-04-28T04:56:31;100118.94;;;12.65;85.58
55755;BME280;41674;52.290;-1.474;2023-04-28T04:59:02;100121.91;;;12.35;87.60
55755;BME280;41674;52.290;-1.474;2023-04-28T05:01:30;100125.24;;;12.03;88.90
55755;BME280;41674;52.290;-1.474;2023-04-28T05:04:04;100126.09;;;12.36;88.05
55755;BME280;41674;52.290;-1.474;2023-04-28T05:06:28;100125.92;;;11.98;90.29
55755;BME280;41674;52.290;-1.474;2023-04-28T05:09:02;100130.35;;;11.20;94.06
55755;BME280;41674;52.290;-1.474;2023-04-28T05:11:27;100133.17;;;10.82;97.61
55755;BME280;41674;52.290;-1.474;2023-04-28T05:13:56;100136.09;;;10.76;99.67
55755;BME280;41674;52.290;-1.474;2023-04-28T05:16:26;100140.88;;;11.06;100.00
55755;BME280;41674;52.290;-1.474;2023-04-28T05:18:54;100138.90;;;10.46;100.00
55755;BME280;41674;52.290;-1.474;2023-04-28T05:21:24;100140.94;;;11.02;100.00
55755;BME280;41674;52.290;-1.474;2023-04-28T05:23:53;100143.34;;;11.54;98.15
55755;BME280;41674;52.290;-1.474;2023-04-28T05:26:23;100140.90;;;11.78;97.55
55755;BME280;41674;52.290;-1.474;2023-04-28T05:28:53;100142.17;;;10.85;100.00
55755;BME280;41674;52.290;-1.474;2023-04-28T05:31:22;100143.18;;;10.68;100.00
55755;BME280;41674;52.290;-1.474;2023-04-28T05:33:51;100147.11;;;10.33;100.00
55755;BME280;41674;52.290;-1.474;2023-04-28T05:36:20;100151.84;;;10.62;100.00
55755;BME280;41674;52.290;-1.474;2023-04-28T05:38:50;100152.48;;;10.88;100.00
55755;BME280;41674;52.290;-1.474;2023-04-28T05:41:19;100156.07;;;9.95;100.00
55755;BME280;41674;52.290;-1.474;2023-04-28T05:43:48;100151.83;;;9.78;100.00
55755;BME280;41674;52.290;-1.474;2023-04-28T05:46:22;100155.49;;;10.77;100.00
55755;BME280;41674;52.290;-1.474;2023-04-28T05:48:47;100156.13;;;10.56;100.00
55755;BME280;41674;52.290;-1.474;2023-04-28T05:51:16;100157.17;;;11.10;100.00
55755;BME280;41674;52.290;-1.474;2023-04-28T05:53:45;100163.13;;;11.32;100.00
55755;BME280;41674;52.290;-1.474;2023-04-28T05:56:15;100161.90;;;11.01;100.00
55755;BME280;41674;52.290;-1.474;2023-04-28T05:58:43;100163.62;;;11.80;100.00
55755;BME280;41674;52.290;-1.474;2023-04-28T06:01:13;100166.42;;;11.11;100.00
55755;BME280;41674;52.290;-1.474;2023-04-28T06:03:47;100168.91;;;10.59;100.00
55755;BME280;41674;52.290;-1.474;2023-04-28T06:06:13;100172.69;;;10.71;100.00
55755;BME280;41674;52.290;-1.474;2023-04-28T06:08:42;100176.45;;;10.94;100.00
55755;BME280;41674;52.290;-1.474;2023-04-28T06:11:12;100180.32;;;10.52;100.00
55755;BME280;41674;52.290;-1.474;2023-04-28T06:13:40;100180.45;;;10.50;100.00
55755;BME280;41674;52.290;-1.474;2023-04-28T06:16:10;100182.84;;;11.50;100.00
55755;BME280;41674;52.290;-1.474;2023-04-28T06:18:40;100182.34;;;10.84;100.00
55755;BME280;41674;52.290;-1.474;2023-04-28T06:21:09;100184.36;;;10.43;100.00
55755;BME280;41674;52.290;-1.474;2023-04-28T06:23:38;100187.92;;;11.39;100.00
55755;BME280;41674;52.290;-1.474;2023-04-28T06:26:08;100189.23;;;11.02;100.00
55755;BME280;41674;52.290;-1.474;2023-04-28T06:28:37;100193.29;;;10.92;100.00
55755;BME280;41674;52.290;-1.474;2023-04-28T06:31:08;100195.40;;;10.97;100.00
55755;BME280;41674;52.290;-1.474;2023-04-28T06:33:37;100197.12;;;10.57;100.00
55755;BME280;41674;52.290;-1.474;2023-04-28T06:36:06;100197.86;;;11.08;100.00
55755;BME280;41674;52.290;-1.474;2023-04-28T06:38:35;100205.69;;;11.35;100.00
55755;BME280;41674;52.290;-1.474;2023-04-28T06:41:04;100211.50;;;11.20;100.00
55755;BME280;41674;52.290;-1.474;2023-04-28T06:43:34;100211.32;;;10.33;100.00
55755;BME280;41674;52.290;-1.474;2023-04-28T06:46:03;100209.80;;;11.09;100.00
55755;BME280;41674;52.290;-1.474;2023-04-28T06:48:33;100214.63;;;11.48;100.00
55755;BME280;41674;52.290;-1.474;2023-04-28T06:51:07;100216.78;;;10.61;100.00
55755;BME280;41674;52.290;-1.474;2023-04-28T06:53:32;100219.87;;;10.49;100.00
55755;BME280;41674;52.290;-1.474;2023-04-28T06:56:01;100222.74;;;10.15;100.00
55755;BME280;41674;52.290;-1.474;2023-04-28T06:58:30;100224.34;;;11.17;100.00
55755;BME280;41674;52.290;-1.474;2023-04-28T07:01:00;100230.23;;;10.02;100.00
55755;BME280;41674;52.290;-1.474;2023-04-28T07:03:30;100230.13;;;10.18;100.00
55755;BME280;41674;52.290;-1.474;2023-04-28T07:05:59;100233.62;;;10.36;100.00
55755;BME280;41674;52.290;-1.474;2023-04-28T07:08:28;100237.15;;;10.40;100.00
55755;BME280;41674;52.290;-1.474;2023-04-28T07:10:57;100245.00;;;11.48;100.00
55755;BME280;41674;52.290;-1.474;2023-04-28T07:13:32;100245.06;;;10.65;100.00
55755;BME280;41674;52.290;-1.474;2023-04-28T07:15:56;100246.74;;;10.89;100.00
55755;BME280;41674;52.290;-1.474;2023-04-28T07:18:26;100248.70;;;10.68;100.00
55755;BME280;41674;52.290;-1.474;2023-04-28T07:20:55;100254.98;;;11.01;100.00
55755;BME280;41674;52.290;-1.474;2023-04-28T07:23:24;100256.24;;;10.92;100.00
55755;BME280;41674;52.290;-1.474;2023-04-28T07:25:56;100264.20;;;11.12;100.00
55755;BME280;41674;52.290;-1.474;2023-04-28T07:28:24;100265.92;;;11.59;100.00
55755;BME280;41674;52.290;-1.474;2023-04-28T07:30:53;100270.09;;;11.80;100.00
55755;BME280;41674;52.290;-1.474;2023-04-28T07:33:24;100269.62;;;11.54;100.00
55755;BME280;41674;52.290;-1.474;2023-04-28T07:35:53;100276.23;;;11.70;100.00
55755;BME280;41674;52.290;-1.474;2023-04-28T07:38:22;100275.88;;;10.92;100.00
55755;BME280;41674;52.290;-1.474;2023-04-28T07:43:22;100280.48;;;10.92;100.00
55755;BME280;41674;52.290;-1.474;2023-04-28T07:45:51;100287.35;;;10.64;100.00
55755;BME280;41674;52.290;-1.474;2023-04-28T07:48:21;100288.89;;;10.93;100.00
55755;BME280;41674;52.290;-1.474;2023-04-28T07:50:50;100292.06;;;10.91;100.00
55755;BME280;41674;52.290;-1.474;2023-04-28T07:53:25;100299.33;;;10.45;100.00
55755;BME280;41674;52.290;-1.474;2023-04-28T07:55:49;100299.27;;;10.33;100.00
55755;BME280;41674;52.290;-1.474;2023-04-28T07:58:18;100302.42;;;10.23;100.00
55755;BME280;41674;52.290;-1.474;2023-04-28T08:00:48;100308.19;;;10.70;100.00
55755;BME280;41674;52.290;-1.474;2023-04-28T08:03:17;100315.88;;;9.94;100.00
55755;BME280;41674;52.290;-1.474;2023-04-28T08:05:47;100317.66;;;10.53;100.00
55755;BME280;41674;52.290;-1.474;2023-04-28T08:08:16;100323.85;;;9.59;100.00
55755;BME280;41674;52.290;-1.474;2023-04-28T08:10:47;100326.75;;;9.70;100.00
55755;BME280;41674;52.290;-1.474;2023-04-28T08:13:15;100334.50;;;9.67;100.00
55755;BME280;41674;52.290;-1.474;2023-04-28T08:15:48;100337.74;;;9.47;100.00
55755;BME280;41674;52.290;-1.474;2023-04-28T08:18:14;100339.33;;;9.67;100.00
55755;BME280;41674;52.290;-1.474;2023-04-28T08:20:43;100347.10;;;9.14;100.00
55755;BME280;41674;52.290;-1.474;2023-04-28T08:23:18;100347.92;;;9.83;100.00
55755;BME280;41674;52.290;-1.474;2023-04-28T08:25:42;100355.72;;;9.71;100.00
55755;BME280;41674;52.290;-1.474;2023-04-28T08:28:13;100360.88;;;9.45;100.00
55755;BME280;41674;52.290;-1.474;2023-04-28T08:30:42;100364.91;;;9.59;100.00
55755;BME280;41674;52.290;-1.474;2023-04-28T08:33:12;100365.79;;;9.47;100.00
55755;BME280;41674;52.290;-1.474;2023-04-28T08:35:41;100370.90;;;9.97;100.00
55755;BME280;41674;52.290;-1.474;2023-04-28T08:38:10;100377.16;;;9.98;100.00
55755;BME280;41674;52.290;-1.474;2023-04-28T08:40:40;100374.36;;;9.93;100.00
55755;BME280;41674;52.290;-1.474;2023-04-28T08:43:10;100376.96;;;10.09;100.00
55755;BME280;41674;52.290;-1.474;2023-04-28T08:45:41;100377.69;;;10.47;100.00
55755;BME280;41674;52.290;-1.474;2023-04-28T08:48:17;100376.64;;;10.51;100.00
55755;BME280;41674;52.290;-1.474;2023-04-28T08:50:39;100377.20;;;10.28;100.00
55755;BME280;41674;52.290;-1.474;2023-04-28T08:53:08;100386.16;;;10.43;100.00
55755;BME280;41674;52.290;-1.474;2023-04-28T08:55:43;100385.34;;;10.39;100.00
55755;BME280;41674;52.290;-1.474;2023-04-28T08:58:14;100383.71;;;10.38;100.00
55755;BME280;41674;52.290;-1.474;2023-04-28T09:00:41;100386.28;;;10.23;100.00
55755;BME280;41674;52.290;-1.474;2023-04-28T09:03:06;100392.34;;;10.74;100.00
55755;BME280;41674;52.290;-1.474;2023-04-28T09:05:36;100390.60;;;10.87;100.00
55755;BME280;41674;52.290;-1.474;2023-04-28T09:08:05;100392.95;;;11.08;100.00
55755;BME280;41674;52.290;-1.474;2023-04-28T09:10:34;100394.91;;;10.91;100.00
55755;BME280;41674;52.290;-1.474;2023-04-28T09:13:04;100404.85;;;10.80;100.00
55755;BME280;41674;52.290;-1.474;2023-04-28T09:15:35;100410.62;;;10.27;100.00
55755;BME280;41674;52.290;-1.474;2023-04-28T09:18:09;100418.55;;;10.33;100.00
55755;BME280;41674;52.290;-1.474;2023-04-28T09:20:34;100425.24;;;10.91;100.00
55755;BME280;41674;52.290;-1.474;2023-04-28T09:23:13;100429.57;;;10.57;100.00
55755;BME280;41674;52.290;-1.474;2023-04-28T09:25:32;100426.30;;;10.34;100.00
55755;BME280;41674;52.290;-1.474;2023-04-28T09:30:39;100435.26;;;11.00;100.00
55755;BME280;41674;52.290;-1.474;2023-04-28T09:33:04;100439.57;;;10.74;100.00
55755;BME280;41674;52.290;-1.474;2023-04-28T09:35:38;100443.95;;;10.86;100.00
55755;BME280;41674;52.290;-1.474;2023-04-28T09:37:59;100448.51;;;10.74;100.00
55755;BME280;41674;52.290;-1.474;2023-04-28T09:40:29;100453.23;;;10.71;100.00
55755;BME280;41674;52.290;-1.474;2023-04-28T09:43:00;100453.53;;;10.92;100.00
55755;BME280;41674;52.290;-1.474;2023-04-28T09:45:37;100456.62;;;11.45;100.00
55755;BME280;41674;52.290;-1.474;2023-04-28T09:50:38;100462.90;;;11.28;100.00
55755;BME280;41674;52.290;-1.474;2023-04-28T09:52:57;100466.79;;;11.15;100.00
55755;BME280;41674;52.290;-1.474;2023-04-28T09:55:28;100470.70;;;11.03;100.00
55755;BME280;41674;52.290;-1.474;2023-04-28T09:57:59;100473.95;;;11.33;100.00
55755;BME280;41674;52.290;-1.474;2023-04-28T10:00:26;100479.50;;;11.42;100.00
55755;BME280;41674;52.290;-1.474;2023-04-28T10:02:55;100483.05;;;10.97;100.00
55755;BME280;41674;52.290;-1.474;2023-04-28T10:05:25;100486.83;;;10.88;100.00
55755;BME280;41674;52.290;-1.474;2023-04-28T10:07:54;100492.84;;;10.68;100.00
55755;BME280;41674;52.290;-1.474;2023-04-28T10:10:23;100499.23;;;10.63;100.00
55755;BME280;41674;52.290;-1.474;2023-04-28T10:12:54;100502.41;;;10.51;100.00
55755;BME280;41674;52.290;-1.474;2023-04-28T10:15:22;100505.79;;;10.15;100.00
55755;BME280;41674;52.290;-1.474;2023-04-28T10:17:52;100520.60;;;10.09;100.00
55755;BME280;41674;52.290;-1.474;2023-04-28T10:20:21;100520.74;;;10.32;100.00
55755;BME280;41674;52.290;-1.474;2023-04-28T10:22:58;100526.60;;;10.57;100.00
55755;BME280;41674;52.290;-1.474;2023-04-28T10:25:26;100532.11;;;10.39;100.00
55755;BME280;41674;52.290;-1.474;2023-04-28T10:27:49;100537.00;;;9.99;100.00
55755;BME280;41674;52.290;-1.474;2023-04-28T10:30:19;100541.19;;;10.10;100.00
55755;BME280;41674;52.290;-1.474;2023-04-28T10:32:48;100542.58;;;9.85;100.00
55755;BME280;41674;52.290;-1.474;2023-04-28T10:38:02;100545.61;;;10.77;100.00
55755;BME280;41674;52.290;-1.474;2023-04-28T10:40:30;100545.61;;;11.01;98.92
55755;BME280;41674;52.290;-1.474;2023-04-28T10:42:52;100551.32;;;11.11;97.21
55755;BME280;41674;52.290;-1.474;2023-04-28T10:47:59;100566.08;;;10.19;100.00
55755;BME280;41674;52.290;-1.474;2023-04-28T10:50:13;100565.22;;;10.39;100.00
55755;BME280;41674;52.290;-1.474;2023-04-28T10:52:49;100571.41;;;10.95;100.00
55755;BME280;41674;52.290;-1.474;2023-04-28T10:55:27;100569.92;;;10.87;99.10
55755;BME280;41674;52.290;-1.474;2023-04-28T10:57:42;100574.36;;;10.95;97.57
55755;BME280;41674;52.290;-1.474;2023-04-28T11:00:27;100572.55;;;11.30;95.28
55755;BME280;41674;52.290;-1.474;2023-04-28T11:02:41;100573.54;;;11.01;98.77
55755;BME280;41674;52.290;-1.474;2023-04-28T11:05:13;100570.18;;;11.17;96.81
55755;BME280;41674;52.290;-1.474;2023-04-28T11:07:40;100572.67;;;11.14;98.83
55755;BME280;41674;52.290;-1.474;2023-04-28T11:10:10;100574.62;;;11.27;94.62
55755;BME280;41674;52.290;-1.474;2023-04-28T11:15:13;100575.79;;;11.13;100.00
55755;BME280;41674;52.290;-1.474;2023-04-28T11:17:40;100580.55;;;11.96;98.69
55755;BME280;41674;52.290;-1.474;2023-04-28T11:20:13;100577.65;;;11.69;95.71
55755;BME280;41674;52.290;-1.474;2023-04-28T11:22:38;100577.01;;;12.20;96.47
55755;BME280;41674;52.290;-1.474;2023-04-28T11:25:08;100576.78;;;12.12;97.55
55755;BME280;41674;52.290;-1.474;2023-04-28T11:27:36;100575.96;;;11.74;96.02
55755;BME280;41674;52.290;-1.474;2023-04-28T11:30:19;100572.10;;;12.67;95.08
55755;BME280;41674;52.290;-1.474;2023-04-28T11:32:36;100578.38;;;12.81;94.07
55755;BME280;41674;52.290;-1.474;2023-04-28T11:35:06;100582.92;;;12.54;94.04
55755;BME280;41674;52.290;-1.474;2023-04-28T11:37:35;100585.05;;;13.11;93.08
55755;BME280;41674;52.290;-1.474;2023-04-28T11:40:09;100587.43;;;13.12;91.43
55755;BME280;41674;52.290;-1.474;2023-04-28T11:42:33;100592.99;;;12.78;90.52
55755;BME280;41674;52.290;-1.474;2023-04-28T11:45:04;100598.08;;;12.30;89.38
55755;BME280;41674;52.290;-1.474;2023-04-28T11:47:33;100596.62;;;12.22;91.56
55755;BME280;41674;52.290;-1.474;2023-04-28T11:50:02;100596.40;;;12.31;91.53
55755;BME280;41674;52.290;-1.474;2023-04-28T11:52:47;100599.66;;;12.29;90.44
55755;BME280;41674;52.290;-1.474;2023-04-28T11:55:02;100600.27;;;12.85;88.99
55755;BME280;41674;52.290;-1.474;2023-04-28T11:57:31;100602.22;;;12.96;88.06
55755;BME280;41674;52.290;-1.474;2023-04-28T12:00:12;100601.98;;;13.08;90.41
55755;BME280;41674;52.290;-1.474;2023-04-28T12:02:30;100600.28;;;12.91;86.79
55755;BME280;41674;52.290;-1.474;2023-04-28T12:05:05;100599.61;;;13.40;87.42
55755;BME280;41674;52.290;-1.474;2023-04-28T12:07:29;100601.98;;;13.25;88.33
55755;BME280;41674;52.290;-1.474;2023-04-28T12:10:10;100610.77;;;14.32;84.50
55755;BME280;41674;52.290;-1.474;2023-04-28T12:12:34;100611.18;;;14.45;82.05
55755;BME280;41674;52.290;-1.474;2023-04-28T12:15:04;100613.31;;;14.28;80.05
55755;BME280;41674;52.290;-1.474;2023-04-28T12:17:28;100616.84;;;13.99;80.20
55755;BME280;41674;52.290;-1.474;2023-04-28T12:19:58;100621.30;;;14.57;82.85
55755;BME280;41674;52.290;-1.474;2023-04-28T12:22:27;100617.85;;;14.44;79.27
55755;BME280;41674;52.290;-1.474;2023-04-28T12:25:03;100614.56;;;14.81;79.65
55755;BME280;41674;52.290;-1.474;2023-04-28T12:27:25;100622.53;;;14.53;79.56
55755;BME280;41674;52.290;-1.474;2023-04-28T12:29:55;100620.32;;;14.58;79.97
55755;BME280;41674;52.290;-1.474;2023-04-28T12:32:37;100624.10;;;14.53;81.90
55755;BME280;41674;52.290;-1.474;2023-04-28T12:34:54;100624.97;;;14.83;81.31
55755;BME280;41674;52.290;-1.474;2023-04-28T12:37:23;100628.57;;;14.49;81.76
55755;BME280;41674;52.290;-1.474;2023-04-28T12:39:57;100630.64;;;14.54;80.60
55755;BME280;41674;52.290;-1.474;2023-04-28T12:42:22;100633.74;;;13.96;80.19
55755;BME280;41674;52.290;-1.474;2023-04-28T12:44:51;100639.03;;;14.65;80.31
55755;BME280;41674;52.290;-1.474;2023-04-28T12:47:20;100634.59;;;15.30;76.82
55755;BME280;41674;52.290;-1.474;2023-04-28T12:49:50;100637.53;;;15.08;78.72
55755;BME280;41674;52.290;-1.474;2023-04-28T12:52:19;100649.37;;;14.33;79.46
55755;BME280;41674;52.290;-1.474;2023-04-28T12:54:48;100646.79;;;13.79;79.66
55755;BME280;41674;52.290;-1.474;2023-04-28T12:57:19;100651.48;;;14.24;80.09
55755;BME280;41674;52.290;-1.474;2023-04-28T12:59:48;100654.20;;;14.15;80.99